INFORMACIÓN METAR y TAF
METAR FOR SECA
ADDS - METARS form results

(1814 UTC 12 December 2019)
Data provider http://aviationweather.gov/metar/data/
 
METAR text: SECA 121800Z 25005KT 170V310 9999 FEW040 30/15 Q1014
Conditions at: SECA (CIUDAD DE CATAMY, EC) observed 1800 UTC 12 December 2019
Temperature: 30.0°C (86°F)
Dewpoint: 15.0°C (59°F) [RH = 40%]
Pressure (altimeter): 29.94 inches Hg (1014.0 mb)
Winds: from the WSW (250 degrees) at 6 MPH (5 knots; 2.6 m/s)
Visibility: 6 or more miles (10+ km)
Ceiling: at least 12,000 feet AGL
Clouds: few clouds at 4000 feet AGL
Weather: no significant weather observed at this time

 MAPA DE AEROPUERTO

 INFORMACIÓN DE PISTA
Pista 06 Longitud 6725 ft Ancho 98 ft
Elevación 3923 ft Umbral desplazado 0 ft Rumbo de pista 64
Pista 24 Longitud 6725 ft Ancho 98 ft
Elevación 4056 ft Umbral desplazado 0 ft Rumbo de pista 244

 FRECUANCIAS DEL AEROPUERTO
Tipo ACC Nombre GUAYAQUIL Frecuencia 128.3 MHZ
Tipo RDO Nombre GUAYAQUIL Frecuencia 126.9 MHZ
Tipo TWR Nombre LA TOMA TW Frecuencia 122.2 MHZ

 RADIO AYUDAS DEL AEROPUERTO



Fly Ecuador Virtual 2018 | System by VAM